createdAt,value
2024-01-15T00:00:01.693Z,51.47
2024-01-15T00:02:30.013Z,50.57
2024-01-15T00:04:59.711Z,49.23
2024-01-15T00:07:27.960Z,48.50
2024-01-15T00:09:56.161Z,49.87
2024-01-15T00:12:24.459Z,49.47
2024-01-15T00:14:53.096Z,50.17
2024-01-15T00:17:21.353Z,47.07
2024-01-15T00:19:49.825Z,48.03
2024-01-15T00:22:20.089Z,51.57
2024-01-15T00:24:48.478Z,48.27
2024-01-15T00:27:16.783Z,51.53
2024-01-15T00:29:45.011Z,52.90
2024-01-15T00:32:13.367Z,53.93
2024-01-15T00:34:42.372Z,51.83
2024-01-15T00:37:10.664Z,56.43
2024-01-15T00:39:40.393Z,49.57
2024-01-15T00:42:08.924Z,51.37
2024-01-15T00:44:37.410Z,49.27
2024-01-15T00:47:05.828Z,48.70
2024-01-15T00:49:34.254Z,47.73
2024-01-15T00:52:03.652Z,48.47
2024-01-15T00:54:31.944Z,43.33
2024-01-15T00:57:01.620Z,37.27
2024-01-15T00:59:29.865Z,35.93
2024-01-15T01:01:58.075Z,32.30
2024-01-15T01:04:26.346Z,34.17
2024-01-15T01:06:54.562Z,34.40
2024-01-15T01:09:22.854Z,39.90
2024-01-15T01:11:51.250Z,40.90
2024-01-15T01:14:21.028Z,41.17
2024-01-15T01:16:49.301Z,42.17
2024-01-15T01:19:18.007Z,45.87
2024-01-15T01:21:46.539Z,42.27
2024-01-15T01:24:14.920Z,42.83
2024-01-15T01:26:43.212Z,44.33
2024-01-15T01:29:11.568Z,43.63
2024-01-15T01:31:45.361Z,41.07
2024-01-15T01:34:16.626Z,41.33
2024-01-15T01:36:45.256Z,37.77
2024-01-15T01:39:13.979Z,36.73
2024-01-15T01:41:42.462Z,35.37
2024-01-15T01:44:10.841Z,36.57
2024-01-15T01:46:41.872Z,35.60
2024-01-15T01:49:12.548Z,34.73
2024-01-15T01:51:41.440Z,40.47
2024-01-15T01:54:13.996Z,39.87
2024-01-15T01:56:42.954Z,42.93
2024-01-15T01:59:13.635Z,39.80
2024-01-15T02:01:43.529Z,34.97
2024-01-15T02:04:12.399Z,34.90
2024-01-15T02:06:40.865Z,29.43
2024-01-15T02:09:10.841Z,29.43
2024-01-15T02:11:39.359Z,29.87
2024-01-15T02:14:07.639Z,27.90
2024-01-15T02:16:35.900Z,29.13
2024-01-15T02:19:05.734Z,28.73
2024-01-15T02:21:34.647Z,33.87
2024-01-15T02:24:04.540Z,33.07
2024-01-15T02:26:37.280Z,31.43
2024-01-15T02:29:07.102Z,29.27
2024-01-15T02:31:35.405Z,32.73
2024-01-15T02:34:04.040Z,29.90
2024-01-15T02:36:32.564Z,32.20
2024-01-15T02:39:00.815Z,31.47
2024-01-15T02:41:30.466Z,28.63
2024-01-15T02:43:58.693Z,30.27
2024-01-15T02:46:26.857Z,30.40
2024-01-15T02:48:55.204Z,32.20
2024-01-15T02:51:24.128Z,31.27
2024-01-15T02:53:52.947Z,31.20
2024-01-15T02:56:21.182Z,31.53
2024-01-15T02:58:50.804Z,32.60
2024-01-15T03:01:21.694Z,34.27
2024-01-15T03:03:50.131Z,32.80
2024-01-15T03:06:18.469Z,34.47
2024-01-15T03:08:46.769Z,32.80
2024-01-15T03:11:15.064Z,34.87
2024-01-15T03:13:43.380Z,34.67
2024-01-15T03:16:13.058Z,34.17
2024-01-15T03:18:41.458Z,34.80
2024-01-15T03:21:09.822Z,35.60
2024-01-15T03:23:38.099Z,35.93
2024-01-15T03:26:06.408Z,34.47
2024-01-15T03:28:34.665Z,32.13
2024-01-15T03:31:03.124Z,32.57
2024-01-15T03:33:32.933Z,34.33
2024-01-15T03:36:01.820Z,34.97
2024-01-15T03:38:30.977Z,32.67
2024-01-15T03:40:59.279Z,31.40
2024-01-15T03:43:28.526Z,30.60
2024-01-15T03:45:56.929Z,31.90
2024-01-15T03:48:25.358Z,33.23
2024-01-15T03:50:55.021Z,32.37
2024-01-15T03:53:23.355Z,30.30
2024-01-15T03:55:51.830Z,28.07
2024-01-15T03:58:20.161Z,28.67
2024-01-15T04:00:48.920Z,27.97
2024-01-15T04:03:17.464Z,28.90
2024-01-15T04:05:46.026Z,27.03
2024-01-15T04:08:15.774Z,27.07
2024-01-15T04:10:43.995Z,28.53
2024-01-15T04:13:12.229Z,27.30
2024-01-15T04:15:40.592Z,28.93
2024-01-15T04:18:09.020Z,28.10
2024-01-15T04:20:37.822Z,28.00
2024-01-15T04:23:06.392Z,29.90
2024-01-15T04:25:36.097Z,26.73
2024-01-15T04:28:04.472Z,37.37
2024-01-15T04:30:32.803Z,33.60
2024-01-15T04:33:01.188Z,28.17
2024-01-15T04:35:29.477Z,28.73
2024-01-15T04:37:57.659Z,29.47
2024-01-15T04:40:28.741Z,29.73
2024-01-15T04:42:58.483Z,30.47
2024-01-15T04:45:29.757Z,28.87
2024-01-15T04:47:59.214Z,28.97
2024-01-15T04:50:27.933Z,31.53
2024-01-15T04:52:56.193Z,33.07
2024-01-15T04:55:24.606Z,39.30
2024-01-15T04:57:52.814Z,32.03
2024-01-15T05:00:22.519Z,31.47
2024-01-15T05:02:50.840Z,31.03
2024-01-15T05:05:19.396Z,29.27
2024-01-15T05:07:47.740Z,30.17
2024-01-15T05:10:16.204Z,30.33
2024-01-15T05:12:44.476Z,32.20
2024-01-15T05:15:12.878Z,34.67
2024-01-15T05:18:00.442Z,32.90
2024-01-15T05:20:28.837Z,33.00
2024-01-15T05:22:57.151Z,35.93
2024-01-15T05:25:25.447Z,57.57
2024-01-15T05:27:53.793Z,36.57
2024-01-15T05:30:22.358Z,36.63
2024-01-15T05:32:52.338Z,36.40
2024-01-15T05:35:20.733Z,35.37
2024-01-15T05:37:49.678Z,33.87
2024-01-15T05:40:18.157Z,33.80
2024-01-15T05:42:46.479Z,37.93
2024-01-15T05:45:15.208Z,42.23
2024-01-15T05:47:43.572Z,36.23
2024-01-15T05:50:14.195Z,37.27
2024-01-15T05:52:42.470Z,39.60
2024-01-15T05:55:11.261Z,41.37
2024-01-15T05:57:39.844Z,41.83
2024-01-15T06:00:10.252Z,37.57
2024-01-15T06:02:40.706Z,37.73
2024-01-15T06:05:09.376Z,37.27
2024-01-15T06:07:39.230Z,34.47
2024-01-15T06:10:08.788Z,33.37
2024-01-15T06:12:37.195Z,34.53
2024-01-15T06:15:06.127Z,34.70
2024-01-15T06:17:34.509Z,32.93
2024-01-15T06:20:02.815Z,31.30
2024-01-15T06:22:31.210Z,31.47
2024-01-15T06:25:00.915Z,32.37
2024-01-15T06:27:29.354Z,35.43
2024-01-15T06:29:58.168Z,34.70
2024-01-15T06:32:26.894Z,30.87
2024-01-15T06:34:55.237Z,30.73
2024-01-15T06:37:23.586Z,30.20
2024-01-15T06:39:52.029Z,29.37
2024-01-15T06:42:23.255Z,29.57
2024-01-15T06:44:51.718Z,28.00
2024-01-15T06:47:20.025Z,30.37
2024-01-15T06:49:48.849Z,28.37
2024-01-15T06:52:17.314Z,27.87
2024-01-15T06:54:46.334Z,26.43
2024-01-15T06:57:14.726Z,25.47
2024-01-15T06:59:44.510Z,29.57
2024-01-15T07:02:13.450Z,27.60
2024-01-15T07:04:43.648Z,29.77
2024-01-15T07:07:12.214Z,31.87
2024-01-15T07:09:40.554Z,34.87
2024-01-15T07:12:09.108Z,36.63
2024-01-15T07:14:37.752Z,36.73
2024-01-15T07:17:07.674Z,36.40
2024-01-15T07:19:35.980Z,37.93
2024-01-15T07:22:04.282Z,34.93
2024-01-15T07:24:32.655Z,40.23
2024-01-15T07:27:00.954Z,37.20
2024-01-15T07:29:29.215Z,40.17
2024-01-15T07:31:57.616Z,37.90
2024-01-15T07:34:27.530Z,39.37
2024-01-15T07:36:55.983Z,42.37
2024-01-15T07:39:25.965Z,39.07
2024-01-15T07:41:54.359Z,33.90
2024-01-15T07:44:22.764Z,37.23
2024-01-15T07:46:51.026Z,35.50
2024-01-15T07:49:20.199Z,36.97
2024-01-15T07:51:50.355Z,37.80
2024-01-15T07:54:18.766Z,41.03
2024-01-15T07:56:57.104Z,39.53
2024-01-15T07:59:25.860Z,40.13
2024-01-15T08:01:54.477Z,42.27
2024-01-15T08:04:23.243Z,41.87
2024-01-15T08:06:53.627Z,42.40
2024-01-15T08:09:22.025Z,43.93
2024-01-15T08:11:50.608Z,46.43
2024-01-15T08:14:20.583Z,44.50
2024-01-15T08:16:48.903Z,42.37
2024-01-15T08:19:17.435Z,40.13
2024-01-15T08:21:46.054Z,38.97
2024-01-15T08:24:18.065Z,37.03
2024-01-15T08:26:46.563Z,35.47
2024-01-15T08:29:14.825Z,35.30
2024-01-15T08:31:43.311Z,35.40
2024-01-15T08:34:11.798Z,35.17
2024-01-15T08:36:40.128Z,32.77
2024-01-15T08:39:10.507Z,30.23
2024-01-15T08:41:40.470Z,31.63
2024-01-15T08:44:08.974Z,31.17
2024-01-15T08:46:37.793Z,35.43
2024-01-15T08:49:07.410Z,35.93
2024-01-15T08:51:36.684Z,35.17
2024-01-15T08:54:05.172Z,34.23
2024-01-15T08:56:33.411Z,33.63
2024-01-15T08:59:03.089Z,31.30
2024-01-15T09:01:32.269Z,32.40
2024-01-15T09:04:00.675Z,31.90
2024-01-15T09:06:29.038Z,32.10
2024-01-15T09:08:57.456Z,32.67
2024-01-15T09:11:25.762Z,32.23
2024-01-15T09:13:54.157Z,33.03
2024-01-15T09:16:24.097Z,33.97
2024-01-15T09:18:52.449Z,32.77
2024-01-15T09:21:20.884Z,32.83
2024-01-15T09:23:49.248Z,33.03
2024-01-15T09:26:17.438Z,32.80
2024-01-15T09:28:45.986Z,32.67
2024-01-15T09:31:14.363Z,33.47
2024-01-15T09:33:44.242Z,31.67
2024-01-15T09:36:12.628Z,32.03
2024-01-15T09:38:43.003Z,33.77
2024-01-15T09:41:11.272Z,31.63
2024-01-15T09:43:41.074Z,33.73
2024-01-15T09:46:09.822Z,31.73
2024-01-15T09:48:39.989Z,31.60
2024-01-15T09:51:11.554Z,30.87
2024-01-15T09:53:41.567Z,30.07
2024-01-15T09:56:13.373Z,29.53
2024-01-15T09:58:43.728Z,31.00
2024-01-15T10:01:13.583Z,28.30
2024-01-15T10:03:45.165Z,28.23
2024-01-15T10:06:22.175Z,26.73
2024-01-15T10:08:53.258Z,30.43
2024-01-15T10:11:21.531Z,29.03
2024-01-15T10:13:53.678Z,30.10
2024-01-15T10:16:23.215Z,28.03
2024-01-15T10:18:52.131Z,25.60
2024-01-15T10:21:22.013Z,26.63
2024-01-15T10:23:50.495Z,26.87
2024-01-15T10:26:19.553Z,28.07
2024-01-15T10:28:47.958Z,27.67
2024-01-15T10:31:17.282Z,26.50
2024-01-15T10:33:45.816Z,26.43
2024-01-15T10:36:14.313Z,31.23
2024-01-15T10:38:45.169Z,29.97
2024-01-15T10:41:32.093Z,30.53
2024-01-15T10:44:00.398Z,29.87
2024-01-15T10:46:28.793Z,30.93
2024-01-15T10:48:57.450Z,30.07
2024-01-15T10:51:27.346Z,32.37
2024-01-15T10:53:58.854Z,33.20
2024-01-15T10:56:30.035Z,33.63
2024-01-15T10:59:00.701Z,40.70
2024-01-15T11:01:31.191Z,38.83
2024-01-15T11:04:00.316Z,31.87
2024-01-15T11:06:31.486Z,29.07
2024-01-15T11:09:05.074Z,30.03
2024-01-15T11:11:38.073Z,31.30
2024-01-15T11:14:07.895Z,29.30
2024-01-15T11:17:00.591Z,28.90
2024-01-15T11:19:38.126Z,24.00
2024-01-15T11:22:07.420Z,27.90
2024-01-15T11:24:39.208Z,27.20
2024-01-15T11:27:08.147Z,26.80
2024-01-15T11:29:37.815Z,26.87
2024-01-15T11:32:09.684Z,26.97
2024-01-15T11:34:54.525Z,27.80
2024-01-15T11:37:24.875Z,25.67
2024-01-15T11:39:56.243Z,27.33
2024-01-15T11:42:25.223Z,25.70
2024-01-15T11:44:53.511Z,24.83
2024-01-15T11:47:47.394Z,26.47
2024-01-15T11:50:16.843Z,27.83
2024-01-15T11:52:54.325Z,23.73
2024-01-15T11:55:29.674Z,22.33
2024-01-15T11:58:00.141Z,24.67
2024-01-15T12:00:28.659Z,22.93
2024-01-15T12:02:57.309Z,24.03
2024-01-15T12:05:26.057Z,23.57
2024-01-15T12:07:54.410Z,25.27
2024-01-15T12:10:25.320Z,22.33
2024-01-15T12:13:02.898Z,26.13
2024-01-15T12:15:32.232Z,22.00
2024-01-15T12:18:01.911Z,23.60
2024-01-15T12:20:31.079Z,23.70
2024-01-15T12:23:02.655Z,19.93
2024-01-15T12:25:34.929Z,22.73
2024-01-15T12:28:03.934Z,21.60
2024-01-15T12:30:33.863Z,22.23
2024-01-15T12:33:05.337Z,21.97
2024-01-15T12:35:34.237Z,25.73
2024-01-15T12:38:04.774Z,25.57
2024-01-15T12:40:37.250Z,26.40
2024-01-15T12:43:07.911Z,23.90
2024-01-15T12:45:37.517Z,25.97
2024-01-15T12:48:07.458Z,25.77
2024-01-15T12:50:37.032Z,32.70
2024-01-15T12:53:05.657Z,37.10
2024-01-15T12:55:35.806Z,37.07
2024-01-15T12:58:05.335Z,38.93
2024-01-15T13:00:33.644Z,37.33
2024-01-15T13:03:04.833Z,38.60
2024-01-15T13:05:35.133Z,40.23
2024-01-15T13:08:04.847Z,38.63
2024-01-15T13:10:34.530Z,39.87
2024-01-15T13:13:03.520Z,40.73
2024-01-15T13:15:32.813Z,40.43
2024-01-15T13:18:01.541Z,40.67
2024-01-15T13:20:30.092Z,40.93
2024-01-15T13:22:58.419Z,38.87
2024-01-15T13:25:26.728Z,39.70
2024-01-15T13:27:56.633Z,38.57
2024-01-15T13:30:24.958Z,38.93
2024-01-15T13:32:53.782Z,39.63
2024-01-15T13:35:22.182Z,38.90
2024-01-15T13:37:50.526Z,36.37
2024-01-15T13:40:21.389Z,38.97
2024-01-15T13:42:50.097Z,40.27
2024-01-15T13:45:21.832Z,41.47
2024-01-15T13:47:50.178Z,41.20
2024-01-15T13:50:18.495Z,41.37
2024-01-15T13:52:46.859Z,40.30
2024-01-15T13:55:15.237Z,38.33
2024-01-15T13:57:43.663Z,38.57
2024-01-15T14:00:13.977Z,39.73
2024-01-15T14:02:44.012Z,39.63
2024-01-15T14:05:14.104Z,45.83
2024-01-15T14:07:42.757Z,42.23
2024-01-15T14:10:12.451Z,38.57
2024-01-15T14:12:41.012Z,38.47
2024-01-15T14:15:10.400Z,38.80
2024-01-15T14:17:39.754Z,36.83
2024-01-15T14:20:11.779Z,36.40
2024-01-15T14:22:40.339Z,37.00
2024-01-15T14:25:09.795Z,40.00
2024-01-15T14:27:38.309Z,38.17
2024-01-15T14:30:09.846Z,38.20
2024-01-15T14:32:38.429Z,38.17
2024-01-15T14:35:09.397Z,40.07
2024-01-15T14:37:39.529Z,53.03
2024-01-15T14:40:10.827Z,39.23
2024-01-15T14:42:39.729Z,37.90
2024-01-15T14:45:13.561Z,38.70
2024-01-15T14:47:43.351Z,37.77
2024-01-15T14:50:13.636Z,34.40
2024-01-15T14:52:47.596Z,36.20
2024-01-15T14:55:18.858Z,35.83
2024-01-15T14:57:47.413Z,40.27
2024-01-15T15:00:18.214Z,37.73
2024-01-15T15:02:46.949Z,36.33
2024-01-15T15:05:18.270Z,30.93
2024-01-15T15:07:48.079Z,33.80
2024-01-15T15:10:17.118Z,31.70
2024-01-15T15:12:46.135Z,29.33
2024-01-15T15:15:18.003Z,29.43
2024-01-15T15:17:48.918Z,29.80
2024-01-15T15:20:17.600Z,31.83
2024-01-15T15:22:48.507Z,31.17
2024-01-15T15:25:16.956Z,29.90
2024-01-15T15:27:45.578Z,28.37
2024-01-15T15:30:14.489Z,31.40
2024-01-15T15:32:42.941Z,30.97
2024-01-15T15:35:12.320Z,30.43
2024-01-15T15:37:40.788Z,32.13
2024-01-15T15:40:12.675Z,30.87
2024-01-15T15:42:41.390Z,32.60
2024-01-15T15:45:10.917Z,29.63
2024-01-15T15:47:39.947Z,35.13
2024-01-15T15:50:10.376Z,32.73
2024-01-15T15:52:38.893Z,30.60
2024-01-15T15:55:09.231Z,34.60
2024-01-15T15:57:39.444Z,32.93
2024-01-15T16:00:09.251Z,29.43
2024-01-15T16:02:37.734Z,28.70
2024-01-15T16:05:10.799Z,29.43
2024-01-15T16:07:39.721Z,28.87
2024-01-15T16:10:09.105Z,31.43
2024-01-15T16:12:39.949Z,37.57
2024-01-15T16:15:20.212Z,40.07
2024-01-15T16:23:17.093Z,35.20
2024-01-15T16:23:31.470Z,33.73
2024-01-15T16:24:04.215Z,32.27
2024-01-15T16:26:14.798Z,32.93
2024-01-15T16:28:44.856Z,32.40
2024-01-15T16:31:13.386Z,37.40
2024-01-15T16:33:45.304Z,43.43
2024-01-15T16:36:16.581Z,40.53
2024-01-15T16:38:45.593Z,45.97
2024-01-15T16:41:14.996Z,40.33
2024-01-15T16:43:44.966Z,37.97
2024-01-15T16:46:13.500Z,40.30
2024-01-15T16:48:42.126Z,40.90
2024-01-15T16:51:11.171Z,42.53
2024-01-15T16:53:39.948Z,41.97
2024-01-15T16:56:08.500Z,41.67
2024-01-15T16:58:36.810Z,42.90
2024-01-15T17:01:09.512Z,44.30
2024-01-15T17:03:38.066Z,39.47
2024-01-15T17:06:06.769Z,43.47
2024-01-15T17:08:35.277Z,46.63
2024-01-15T17:11:04.338Z,48.50
2024-01-15T17:13:34.164Z,48.97
2024-01-15T17:16:02.490Z,43.70
2024-01-15T17:18:32.391Z,40.90
2024-01-15T17:21:03.482Z,45.03
2024-01-15T17:23:31.852Z,52.63
2024-01-15T17:26:00.505Z,49.20
2024-01-15T17:28:28.737Z,51.20
2024-01-15T17:30:57.166Z,47.93
2024-01-15T17:33:25.698Z,49.87
2024-01-15T17:35:57.582Z,48.80
2024-01-15T17:38:26.293Z,39.43
2024-01-15T17:40:54.760Z,42.13
2024-01-15T17:43:23.826Z,44.63
2024-01-15T17:45:53.939Z,44.00
2024-01-15T17:48:22.396Z,44.27
2024-01-15T17:50:52.657Z,47.00
2024-01-15T17:53:22.644Z,46.30
2024-01-15T17:55:51.149Z,49.13
2024-01-15T17:58:19.436Z,47.93
2024-01-15T18:00:47.796Z,50.47
2024-01-15T18:03:16.202Z,53.17
2024-01-15T18:05:44.600Z,48.20
2024-01-15T18:08:13.542Z,52.47
2024-01-15T18:10:43.511Z,50.60
2024-01-15T18:13:12.314Z,58.80
2024-01-15T18:15:41.242Z,56.43
2024-01-15T18:18:10.821Z,59.00
2024-01-15T18:20:39.837Z,55.90
2024-01-15T18:23:08.368Z,52.20
2024-01-15T18:25:36.869Z,57.63
2024-01-15T18:28:07.585Z,54.43
2024-01-15T18:30:36.062Z,60.80
2024-01-15T18:33:06.456Z,58.40
2024-01-15T18:35:34.896Z,54.53
2024-01-15T18:38:03.474Z,57.20
2024-01-15T18:40:36.066Z,57.57
2024-01-15T18:43:04.438Z,59.57
2024-01-15T18:45:34.169Z,64.07
2024-01-15T18:48:02.533Z,60.83
2024-01-15T18:50:31.435Z,63.53
2024-01-15T18:53:00.540Z,66.40
2024-01-15T18:55:28.839Z,67.00
2024-01-15T18:58:00.548Z,67.87
2024-01-15T19:00:29.199Z,74.43
2024-01-15T19:02:59.768Z,72.87
2024-01-15T19:05:27.213Z,69.07
2024-01-15T19:07:55.496Z,70.27
2024-01-15T19:10:23.670Z,63.10
2024-01-15T19:12:51.956Z,103.00
2024-01-15T19:15:21.329Z,77.43
2024-01-15T19:17:50.783Z,63.47
2024-01-15T19:20:20.753Z,60.67
2024-01-15T19:22:50.048Z,57.80
2024-01-15T19:25:18.562Z,58.00
2024-01-15T19:27:47.674Z,59.07
2024-01-15T19:30:17.905Z,59.77
2024-01-15T19:32:46.534Z,56.60
2024-01-15T19:35:15.180Z,55.80
2024-01-15T19:37:45.448Z,56.00
2024-01-15T19:40:15.456Z,54.70
2024-01-15T19:42:44.010Z,59.53
2024-01-15T19:45:12.357Z,59.17
2024-01-15T19:47:40.853Z,63.60
2024-01-15T19:50:10.418Z,58.73
2024-01-15T19:52:40.692Z,58.93
2024-01-15T19:55:11.115Z,60.33
2024-01-15T19:57:39.926Z,59.23
2024-01-15T20:00:09.956Z,55.47
2024-01-15T20:02:38.551Z,58.67
2024-01-15T20:05:10.501Z,56.13
2024-01-15T20:07:39.280Z,53.33
2024-01-15T20:10:11.125Z,51.20
2024-01-15T20:12:41.003Z,54.80
2024-01-15T20:15:10.041Z,51.17
2024-01-15T20:17:38.639Z,46.83
2024-01-15T20:20:12.170Z,43.37
2024-01-15T20:22:40.934Z,42.10
2024-01-15T20:25:09.744Z,41.70
2024-01-15T20:27:40.661Z,41.30
2024-01-15T20:30:11.923Z,43.50
2024-01-15T20:32:40.931Z,42.13
2024-01-15T20:35:12.751Z,40.57
2024-01-15T20:37:41.063Z,42.80
2024-01-15T20:40:10.589Z,38.97
2024-01-15T20:42:39.699Z,38.43
2024-01-15T20:45:11.860Z,37.87
2024-01-15T20:47:40.151Z,35.87
2024-01-15T20:50:10.226Z,38.30
2024-01-15T20:52:38.643Z,38.77
2024-01-15T20:55:09.726Z,39.73
2024-01-15T20:57:38.320Z,40.33
2024-01-15T21:00:09.400Z,38.77
2024-01-15T21:02:40.109Z,39.73
2024-01-15T21:05:10.016Z,38.20
2024-01-15T21:07:39.476Z,38.90
2024-01-15T21:10:08.853Z,38.53
2024-01-15T21:12:37.277Z,36.60
2024-01-15T21:15:06.033Z,38.13
2024-01-15T21:17:34.497Z,37.40
2024-01-15T21:20:08.879Z,38.23
2024-01-15T21:22:37.222Z,41.63
2024-01-15T21:25:06.203Z,39.10
2024-01-15T21:27:35.459Z,46.03
2024-01-15T21:30:03.776Z,49.37
2024-01-15T21:32:32.191Z,54.07
2024-01-15T21:35:00.762Z,51.13
2024-01-15T21:37:30.413Z,52.20
2024-01-15T21:39:58.718Z,42.70
2024-01-15T21:42:27.328Z,38.23
2024-01-15T21:44:55.734Z,40.23
2024-01-15T21:47:24.838Z,38.13
2024-01-15T21:49:53.225Z,39.17
2024-01-15T21:52:21.990Z,38.20
2024-01-15T21:54:51.878Z,39.43
2024-01-15T21:57:20.312Z,38.30
2024-01-15T21:59:48.632Z,40.07
2024-01-15T22:02:17.194Z,43.80
2024-01-15T22:04:45.740Z,41.80
2024-01-15T22:07:14.089Z,39.97
2024-01-15T22:09:43.007Z,39.87
2024-01-15T22:12:12.803Z,42.80
2024-01-15T22:14:41.190Z,40.97
2024-01-15T22:17:09.509Z,41.83
2024-01-15T22:19:37.854Z,44.13
2024-01-15T22:22:06.459Z,41.83
2024-01-15T22:24:34.894Z,42.93
2024-01-15T22:27:05.698Z,42.10
2024-01-15T22:29:37.675Z,43.10
2024-01-15T22:32:06.476Z,41.23
2024-01-15T22:34:34.803Z,42.77
2024-01-15T22:37:03.021Z,42.63
2024-01-15T22:39:31.309Z,40.70
2024-01-15T22:42:00.365Z,43.93
2024-01-15T22:44:28.966Z,40.10
2024-01-15T22:46:59.153Z,44.50
2024-01-15T22:49:27.968Z,40.37
2024-01-15T22:51:56.727Z,42.37
2024-01-15T22:54:25.071Z,43.60
2024-01-15T22:56:53.386Z,40.43
2024-01-15T22:59:23.388Z,42.17
2024-01-15T23:01:51.850Z,43.50
2024-01-15T23:04:21.488Z,42.93
2024-01-15T23:06:49.673Z,43.87
2024-01-15T23:09:17.917Z,43.80
2024-01-15T23:11:50.536Z,42.93
2024-01-15T23:14:18.804Z,42.13
2024-01-15T23:16:47.087Z,42.07
2024-01-15T23:19:15.687Z,42.93
2024-01-15T23:21:46.023Z,42.20
2024-01-15T23:24:14.368Z,42.57
2024-01-15T23:26:42.704Z,41.90
2024-01-15T23:29:10.999Z,41.10
2024-01-15T23:31:42.003Z,40.83
2024-01-15T23:34:10.765Z,39.43
2024-01-15T23:36:39.503Z,39.47
2024-01-15T23:39:09.203Z,41.83
2024-01-15T23:41:37.623Z,41.87
2024-01-15T23:44:06.410Z,40.73
2024-01-15T23:46:34.965Z,41.83
2024-01-15T23:49:03.721Z,38.93
2024-01-15T23:51:32.469Z,40.47
2024-01-15T23:54:00.736Z,40.83
2024-01-15T23:56:30.821Z,43.80
2024-01-15T23:58:59.112Z,40.03
